createdAt,value
2022-08-31T00:00:40.151Z,13.10
2022-08-31T00:03:27.314Z,13.10
2022-08-31T00:05:58.223Z,13.10
2022-08-31T00:08:27.621Z,13.10
2022-08-31T00:10:56.200Z,13.00
2022-08-31T00:13:28.822Z,13.00
2022-08-31T00:15:58.321Z,13.00
2022-08-31T00:18:27.970Z,13.00
2022-08-31T00:20:56.470Z,13.00
2022-08-31T00:23:25.718Z,12.90
2022-08-31T00:25:54.307Z,12.90
2022-08-31T00:28:22.764Z,12.90
2022-08-31T00:30:51.604Z,12.90
2022-08-31T00:33:20.077Z,12.80
2022-08-31T00:35:49.798Z,12.80
2022-08-31T00:38:17.988Z,12.80
2022-08-31T00:40:48.322Z,12.80
2022-08-31T00:43:37.040Z,12.80
2022-08-31T00:46:05.754Z,12.70
2022-08-31T00:48:34.920Z,12.70
2022-08-31T00:51:05.382Z,12.60
2022-08-31T00:53:33.812Z,12.60
2022-08-31T00:56:02.750Z,12.70
2022-08-31T00:58:31.496Z,12.60
2022-08-31T01:01:00.990Z,12.50
2022-08-31T01:03:29.249Z,12.40
2022-08-31T01:05:57.571Z,12.40
2022-08-31T01:08:30.697Z,12.40
2022-08-31T01:11:01.240Z,12.30
2022-08-31T01:13:31.923Z,12.30
2022-08-31T01:16:06.857Z,12.30
2022-08-31T01:18:36.124Z,12.20
2022-08-31T01:21:23.262Z,12.20
2022-08-31T01:23:55.683Z,12.20
2022-08-31T01:26:27.493Z,12.20
2022-08-31T01:29:01.515Z,12.20
2022-08-31T01:31:35.821Z,12.20
2022-08-31T01:34:05.368Z,12.20
2022-08-31T01:36:36.620Z,12.10
2022-08-31T01:39:08.627Z,12.10
2022-08-31T01:41:41.231Z,12.10
2022-08-31T01:44:10.122Z,12.20
2022-08-31T01:46:38.602Z,12.20
2022-08-31T01:49:07.215Z,12.10
2022-08-31T01:51:36.354Z,12.10
2022-08-31T01:54:07.416Z,12.00
2022-08-31T01:56:38.872Z,12.10
2022-08-31T01:59:11.681Z,12.10
2022-08-31T02:01:44.262Z,12.10
2022-08-31T02:04:15.845Z,12.00
2022-08-31T02:06:49.208Z,12.00
2022-08-31T02:09:22.697Z,11.90
2022-08-31T02:11:50.973Z,11.90
2022-08-31T02:14:21.133Z,11.90
2022-08-31T02:16:50.623Z,11.80
2022-08-31T02:19:19.616Z,11.80
2022-08-31T02:21:47.821Z,11.80
2022-08-31T02:24:16.565Z,11.80
2022-08-31T02:26:49.358Z,11.70
2022-08-31T02:29:20.002Z,11.70
2022-08-31T02:31:48.404Z,11.70
2022-08-31T02:34:17.281Z,11.70
2022-08-31T02:36:46.235Z,11.70
2022-08-31T02:39:15.461Z,11.70
2022-08-31T02:41:45.070Z,11.60
2022-08-31T02:44:13.471Z,11.60
2022-08-31T02:46:42.326Z,11.60
2022-08-31T02:49:29.099Z,11.60
2022-08-31T02:51:57.309Z,11.60
2022-08-31T02:54:25.605Z,11.60
2022-08-31T02:56:55.216Z,11.60
2022-08-31T02:59:23.492Z,11.60
2022-08-31T03:01:52.788Z,11.60
2022-08-31T03:04:21.153Z,11.70
2022-08-31T03:06:49.730Z,11.70
2022-08-31T03:09:18.758Z,11.70
2022-08-31T03:11:47.039Z,11.70
2022-08-31T03:14:16.665Z,11.70
2022-08-31T03:16:46.947Z,11.70
2022-08-31T03:19:21.807Z,11.70
2022-08-31T03:21:51.911Z,11.70
2022-08-31T03:24:25.057Z,11.60
2022-08-31T03:26:55.935Z,11.60
2022-08-31T03:29:25.632Z,11.60
2022-08-31T03:31:56.430Z,11.60
2022-08-31T03:34:26.312Z,11.60
2022-08-31T03:36:54.565Z,11.60
2022-08-31T03:39:22.931Z,11.50
2022-08-31T03:41:51.174Z,11.50
2022-08-31T03:44:23.565Z,11.50
2022-08-31T03:46:55.369Z,11.40
2022-08-31T03:49:25.377Z,11.40
2022-08-31T03:52:10.134Z,11.50
2022-08-31T03:54:45.886Z,11.50
2022-08-31T03:57:14.154Z,11.50
2022-08-31T03:59:42.457Z,11.50
2022-08-31T04:02:21.300Z,11.50
2022-08-31T04:05:15.835Z,11.40
2022-08-31T04:08:02.980Z,11.50
2022-08-31T04:10:48.909Z,11.40
2022-08-31T04:13:55.331Z,11.40
2022-08-31T04:16:46.399Z,11.40
2022-08-31T04:19:45.181Z,11.40
2022-08-31T04:22:24.875Z,11.30
2022-08-31T04:25:11.736Z,11.30
2022-08-31T04:27:45.973Z,11.30
2022-08-31T04:30:16.870Z,11.30
2022-08-31T04:32:45.075Z,11.30
2022-08-31T04:35:15.542Z,11.40
2022-08-31T04:37:46.671Z,11.40
2022-08-31T04:40:19.581Z,11.40
2022-08-31T04:42:49.569Z,11.40
2022-08-31T04:45:21.389Z,11.50
2022-08-31T04:47:50.134Z,11.40
2022-08-31T04:50:19.905Z,11.30
2022-08-31T04:53:06.874Z,11.30
2022-08-31T04:55:35.181Z,11.30
2022-08-31T04:58:03.420Z,11.30
2022-08-31T05:00:31.701Z,11.40
2022-08-31T05:03:26.121Z,11.40
2022-08-31T05:05:57.846Z,11.50
2022-08-31T05:08:26.237Z,11.60
2022-08-31T05:10:54.841Z,11.70
2022-08-31T05:13:23.314Z,11.70
2022-08-31T05:15:55.021Z,11.70
2022-08-31T05:18:25.773Z,11.70
2022-08-31T05:21:10.525Z,11.70
2022-08-31T05:23:39.776Z,11.80
2022-08-31T05:26:09.470Z,11.80
2022-08-31T05:28:39.127Z,11.90
2022-08-31T05:31:07.786Z,12.00
2022-08-31T05:33:42.403Z,12.00
2022-08-31T05:36:12.976Z,12.10
2022-08-31T05:38:41.848Z,12.20
2022-08-31T05:41:12.224Z,12.30
2022-08-31T05:43:41.836Z,12.50
2022-08-31T05:46:14.420Z,12.50
2022-08-31T05:48:49.542Z,12.60
2022-08-31T05:51:20.909Z,12.70
2022-08-31T05:53:50.103Z,12.80
2022-08-31T05:56:21.831Z,12.80
2022-08-31T05:58:55.065Z,12.90
2022-08-31T06:01:27.049Z,12.90
2022-08-31T06:04:05.343Z,13.00
2022-08-31T06:06:36.782Z,13.10
2022-08-31T06:09:07.448Z,13.20
2022-08-31T06:11:40.472Z,13.30
2022-08-31T06:14:12.193Z,13.50
2022-08-31T06:16:45.096Z,13.70
2022-08-31T06:19:16.877Z,13.90
2022-08-31T06:21:50.599Z,14.10
2022-08-31T06:24:27.396Z,14.30
2022-08-31T06:26:59.199Z,14.50
2022-08-31T06:29:35.461Z,14.60
2022-08-31T06:32:07.935Z,14.70
2022-08-31T06:34:38.577Z,14.80
2022-08-31T06:37:10.947Z,14.90
2022-08-31T06:40:00.351Z,15.00
2022-08-31T06:42:28.654Z,15.10
2022-08-31T06:44:57.357Z,15.20
2022-08-31T06:47:44.672Z,15.30
2022-08-31T06:50:13.794Z,15.30
2022-08-31T06:52:43.429Z,15.40
2022-08-31T06:55:23.845Z,15.40
2022-08-31T06:57:52.564Z,15.60
2022-08-31T07:00:39.808Z,15.70
2022-08-31T07:03:33.213Z,15.90
2022-08-31T07:06:09.360Z,16.10
2022-08-31T07:08:42.268Z,16.30
2022-08-31T07:11:17.023Z,16.40
2022-08-31T07:13:45.647Z,16.60
2022-08-31T07:16:18.078Z,16.80
2022-08-31T07:18:48.220Z,16.90
2022-08-31T07:21:19.794Z,17.00
2022-08-31T07:23:50.913Z,17.00
2022-08-31T07:26:25.489Z,17.20
2022-08-31T07:28:57.071Z,17.20
2022-08-31T07:31:37.632Z,17.20
2022-08-31T07:34:07.774Z,17.40
2022-08-31T07:37:00.364Z,17.40
2022-08-31T07:39:53.578Z,17.50
2022-08-31T07:42:28.774Z,17.70
2022-08-31T07:45:00.558Z,17.80
2022-08-31T07:47:30.355Z,17.80
2022-08-31T07:50:01.256Z,17.90
2022-08-31T07:52:58.412Z,18.00
2022-08-31T07:55:47.962Z,18.10
2022-08-31T07:58:38.086Z,18.10
2022-08-31T08:01:07.052Z,18.20
2022-08-31T08:03:35.716Z,18.40
2022-08-31T08:06:28.779Z,18.50
2022-08-31T08:09:30.412Z,18.70
2022-08-31T08:12:19.170Z,18.80
2022-08-31T08:15:10.113Z,18.70
2022-08-31T08:17:54.985Z,18.70
2022-08-31T08:20:36.259Z,18.70
2022-08-31T08:23:13.944Z,18.80
2022-08-31T08:26:21.128Z,18.80
2022-08-31T08:29:11.085Z,19.00
2022-08-31T08:31:48.332Z,19.10
2022-08-31T08:34:17.715Z,19.20
2022-08-31T08:36:46.449Z,19.30
2022-08-31T08:39:15.082Z,19.30
2022-08-31T08:41:57.693Z,19.50
2022-08-31T08:44:35.326Z,19.60
2022-08-31T08:47:14.943Z,19.70
2022-08-31T08:49:54.170Z,19.70
2022-08-31T08:52:28.292Z,19.70
2022-08-31T08:55:03.047Z,19.80
2022-08-31T08:57:36.370Z,19.90
2022-08-31T09:00:14.584Z,19.90
2022-08-31T09:02:55.845Z,19.80
2022-08-31T09:05:53.473Z,19.90
2022-08-31T09:09:08.767Z,20.10
2022-08-31T09:12:00.031Z,20.20
2022-08-31T09:15:15.374Z,20.10
2022-08-31T09:17:59.819Z,20.00
2022-08-31T09:20:30.252Z,19.80
2022-08-31T09:23:00.754Z,19.80
2022-08-31T09:25:37.373Z,19.90
2022-08-31T09:28:16.348Z,19.90
2022-08-31T09:30:52.750Z,19.80
2022-08-31T09:33:26.558Z,20.00
2022-08-31T09:36:15.452Z,19.90
2022-08-31T09:38:47.032Z,19.90
2022-08-31T09:41:35.432Z,19.80
2022-08-31T09:44:32.557Z,19.70
2022-08-31T09:47:05.240Z,19.80
2022-08-31T09:49:37.920Z,19.80
2022-08-31T09:52:46.889Z,19.80
2022-08-31T09:55:21.295Z,19.80
2022-08-31T09:57:58.984Z,19.80
2022-08-31T10:00:35.205Z,19.80
2022-08-31T10:03:19.153Z,20.10
2022-08-31T10:05:51.707Z,20.20
2022-08-31T10:08:41.747Z,20.50
2022-08-31T10:11:17.430Z,20.60
2022-08-31T10:13:57.309Z,20.90
2022-08-31T10:16:36.518Z,21.10
2022-08-31T10:19:09.609Z,21.20
2022-08-31T10:21:52.057Z,21.40
2022-08-31T10:24:33.241Z,21.40
2022-08-31T10:27:16.506Z,21.40
2022-08-31T10:29:57.046Z,21.60
2022-08-31T10:32:37.236Z,21.80
2022-08-31T10:35:19.365Z,21.80
2022-08-31T10:37:59.800Z,21.70
2022-08-31T10:40:34.024Z,21.60
2022-08-31T10:43:14.318Z,21.50
2022-08-31T10:45:49.067Z,21.20
2022-08-31T10:48:21.926Z,21.20
2022-08-31T10:51:06.645Z,21.30
2022-08-31T10:53:55.244Z,21.50
2022-08-31T10:56:46.870Z,21.70
2022-08-31T10:59:26.062Z,21.80
2022-08-31T11:02:25.473Z,22.10
2022-08-31T11:05:06.002Z,22.20
2022-08-31T11:07:46.182Z,22.50
2022-08-31T11:10:29.958Z,22.60
2022-08-31T11:13:06.664Z,22.50
2022-08-31T11:15:58.391Z,22.30
2022-08-31T11:19:14.068Z,22.30
2022-08-31T11:22:19.607Z,22.30
2022-08-31T11:25:32.052Z,22.20
2022-08-31T11:28:09.992Z,22.10
2022-08-31T11:30:51.351Z,21.90
2022-08-31T11:33:28.273Z,21.90
2022-08-31T11:36:07.241Z,21.90
2022-08-31T11:39:21.452Z,21.60
2022-08-31T11:41:51.821Z,21.70
2022-08-31T11:45:01.977Z,22.00
2022-08-31T11:47:43.099Z,22.30
2022-08-31T11:50:55.783Z,22.40
2022-08-31T11:53:35.557Z,22.50
2022-08-31T11:56:06.980Z,22.60
2022-08-31T11:58:39.698Z,22.50
2022-08-31T12:01:36.297Z,22.30
2022-08-31T12:04:04.843Z,22.30
2022-08-31T12:07:04.054Z,22.40
2022-08-31T12:10:03.034Z,22.60
2022-08-31T12:12:51.231Z,22.90
2022-08-31T12:15:32.064Z,23.00
2022-08-31T12:18:30.089Z,23.10
2022-08-31T12:21:27.590Z,23.10
2022-08-31T12:24:18.662Z,23.20
2022-08-31T12:27:14.898Z,23.20
2022-08-31T12:29:43.911Z,23.20
2022-08-31T12:32:26.615Z,23.00
2022-08-31T12:35:13.038Z,22.70
2022-08-31T12:37:42.464Z,22.20
2022-08-31T12:40:20.779Z,22.00
2022-08-31T12:43:05.604Z,21.80
2022-08-31T12:46:29.495Z,21.80
2022-08-31T12:49:24.455Z,22.00
2022-08-31T12:52:08.260Z,22.30
2022-08-31T12:55:04.514Z,22.50
2022-08-31T12:58:06.264Z,22.50
2022-08-31T13:00:39.264Z,22.60
2022-08-31T13:03:18.936Z,22.50
2022-08-31T13:06:05.683Z,22.40
2022-08-31T13:08:40.863Z,22.20
2022-08-31T13:11:23.312Z,21.90
2022-08-31T13:13:52.631Z,21.80
2022-08-31T13:16:22.049Z,21.60
2022-08-31T13:19:06.810Z,21.60
2022-08-31T13:21:36.716Z,21.40
2022-08-31T13:24:11.539Z,21.30
2022-08-31T13:26:39.760Z,21.50
2022-08-31T13:29:15.742Z,21.50
2022-08-31T13:31:52.057Z,21.50
2022-08-31T13:34:23.502Z,21.60
2022-08-31T13:36:58.284Z,21.60
2022-08-31T13:39:34.809Z,21.80
2022-08-31T13:42:09.104Z,22.20
2022-08-31T13:44:46.848Z,22.50
2022-08-31T13:47:21.207Z,22.80
2022-08-31T13:49:53.193Z,22.90
2022-08-31T13:52:27.229Z,23.00
2022-08-31T13:55:04.973Z,23.20
2022-08-31T13:57:35.808Z,23.30
2022-08-31T14:00:33.589Z,23.40
2022-08-31T14:03:33.666Z,23.60
2022-08-31T14:06:23.759Z,23.30
2022-08-31T14:08:56.701Z,23.20
2022-08-31T14:11:28.986Z,23.20
2022-08-31T14:14:06.007Z,23.00
2022-08-31T14:16:39.876Z,22.80
2022-08-31T14:19:12.108Z,22.60
2022-08-31T14:21:43.628Z,22.40
2022-08-31T14:24:13.213Z,22.20
2022-08-31T14:26:44.837Z,22.20
2022-08-31T14:29:16.522Z,22.10
2022-08-31T14:31:49.374Z,22.00
2022-08-31T14:34:25.731Z,21.90
2022-08-31T14:36:59.436Z,21.80
2022-08-31T14:39:30.979Z,21.90
2022-08-31T14:42:06.014Z,22.00
2022-08-31T14:44:38.648Z,22.20
2022-08-31T14:47:08.207Z,22.40
2022-08-31T14:49:37.173Z,22.50
2022-08-31T14:52:07.106Z,22.50
2022-08-31T14:54:37.185Z,22.50
2022-08-31T14:57:13.315Z,22.50
2022-08-31T14:59:44.618Z,22.30
2022-08-31T15:02:16.266Z,22.20
2022-08-31T15:04:45.789Z,22.20
2022-08-31T15:07:17.129Z,22.10
2022-08-31T15:09:50.160Z,21.90
2022-08-31T15:12:19.891Z,21.80
2022-08-31T15:14:47.965Z,21.80
2022-08-31T15:17:20.425Z,21.80
2022-08-31T15:19:55.127Z,21.80
2022-08-31T15:22:25.523Z,21.80
2022-08-31T15:24:55.745Z,21.70
2022-08-31T15:27:28.894Z,21.60
2022-08-31T15:30:07.693Z,21.50
2022-08-31T15:32:43.658Z,21.50
2022-08-31T15:35:17.690Z,21.50
2022-08-31T15:37:54.797Z,21.60
2022-08-31T15:40:23.686Z,21.70
2022-08-31T15:42:53.945Z,22.00
2022-08-31T15:45:23.234Z,22.20
2022-08-31T15:48:09.125Z,22.30
2022-08-31T15:50:37.494Z,22.50
2022-08-31T15:53:09.917Z,22.80
2022-08-31T15:55:40.598Z,22.90
2022-08-31T15:58:12.555Z,22.90
2022-08-31T16:00:42.115Z,23.00
2022-08-31T16:03:12.481Z,23.10
2022-08-31T16:05:44.163Z,23.10
2022-08-31T16:08:14.091Z,23.30
2022-08-31T16:10:44.963Z,23.20
2022-08-31T16:13:16.140Z,23.20
2022-08-31T16:15:51.929Z,23.30
2022-08-31T16:18:22.158Z,23.40
2022-08-31T16:20:51.730Z,23.50
2022-08-31T16:23:20.963Z,23.40
2022-08-31T16:25:49.677Z,23.30
2022-08-31T16:28:21.643Z,23.30
2022-08-31T16:30:51.672Z,23.30
2022-08-31T16:33:20.597Z,23.10
2022-08-31T16:35:49.082Z,22.90
2022-08-31T16:38:17.411Z,22.60
2022-08-31T16:40:45.755Z,22.50
2022-08-31T16:43:13.965Z,22.40
2022-08-31T16:45:43.739Z,22.30
2022-08-31T16:48:30.179Z,22.20
2022-08-31T16:51:02.741Z,22.00
2022-08-31T16:53:32.284Z,21.90
2022-08-31T16:56:03.822Z,21.90
2022-08-31T16:58:51.354Z,21.80
2022-08-31T17:01:25.618Z,21.70
2022-08-31T17:03:59.548Z,21.70
2022-08-31T17:06:31.066Z,21.50
2022-08-31T17:09:10.336Z,21.50
2022-08-31T17:11:47.280Z,21.50
2022-08-31T17:14:18.854Z,21.50
2022-08-31T17:16:51.080Z,21.50
2022-08-31T17:19:23.977Z,21.40
2022-08-31T17:21:52.921Z,21.40
2022-08-31T17:24:25.816Z,21.40
2022-08-31T17:26:59.452Z,21.40
2022-08-31T17:29:32.126Z,21.30
2022-08-31T17:32:07.431Z,21.20
2022-08-31T17:34:38.207Z,21.30
2022-08-31T17:37:13.187Z,21.20
2022-08-31T17:39:42.590Z,21.10
2022-08-31T17:42:15.276Z,21.00
2022-08-31T17:44:44.894Z,21.00
2022-08-31T17:47:15.422Z,20.90
2022-08-31T17:49:46.562Z,20.80
2022-08-31T17:52:15.121Z,20.80
2022-08-31T17:54:45.305Z,20.80
2022-08-31T17:57:16.896Z,20.70
2022-08-31T17:59:49.338Z,20.50
2022-08-31T18:02:23.013Z,20.30
2022-08-31T18:04:52.544Z,20.20
2022-08-31T18:07:21.161Z,20.10
2022-08-31T18:09:49.480Z,20.10
2022-08-31T18:12:21.999Z,20.00
2022-08-31T18:14:51.213Z,19.90
2022-08-31T18:17:22.528Z,20.00
2022-08-31T18:19:51.318Z,19.90
2022-08-31T18:22:19.806Z,19.70
2022-08-31T18:24:48.237Z,19.60
2022-08-31T18:27:16.769Z,19.50
2022-08-31T18:29:46.698Z,19.50
2022-08-31T18:32:15.315Z,19.60
2022-08-31T18:34:47.064Z,19.40
2022-08-31T18:37:22.151Z,19.30
2022-08-31T18:40:08.720Z,19.30
2022-08-31T18:42:56.813Z,19.20
2022-08-31T18:45:26.536Z,19.20
2022-08-31T18:48:24.769Z,19.10
2022-08-31T18:50:51.076Z,19.10
2022-08-31T18:53:28.995Z,19.00
2022-08-31T18:56:05.688Z,18.90
2022-08-31T18:58:35.567Z,18.90
2022-08-31T19:01:04.713Z,18.80
2022-08-31T19:03:33.125Z,18.80
2022-08-31T19:06:02.922Z,18.70
2022-08-31T19:08:34.617Z,18.70
2022-08-31T19:11:07.404Z,18.60
2022-08-31T19:13:36.196Z,18.60
2022-08-31T19:16:15.195Z,18.60
2022-08-31T19:18:45.407Z,18.50
2022-08-31T19:21:20.992Z,18.50
2022-08-31T19:23:51.477Z,18.40
2022-08-31T19:26:23.834Z,18.30
2022-08-31T19:28:52.426Z,18.30
2022-08-31T19:31:22.781Z,18.20
2022-08-31T19:33:56.408Z,18.30
2022-08-31T19:36:27.718Z,18.10
2022-08-31T19:38:57.167Z,18.00
2022-08-31T19:41:28.962Z,17.90
2022-08-31T19:44:08.037Z,17.90
2022-08-31T19:46:38.180Z,17.90
2022-08-31T19:49:10.922Z,18.00
2022-08-31T19:51:43.866Z,17.90
2022-08-31T19:54:12.697Z,17.80
2022-08-31T19:56:43.707Z,17.80
2022-08-31T19:59:18.070Z,17.80
2022-08-31T20:01:48.671Z,17.80
2022-08-31T20:04:18.968Z,17.70
2022-08-31T20:06:52.375Z,17.60
2022-08-31T20:09:23.793Z,17.60
2022-08-31T20:11:55.059Z,17.40
2022-08-31T20:14:24.420Z,17.40
2022-08-31T20:16:54.938Z,17.30
2022-08-31T20:19:25.589Z,17.30
2022-08-31T20:22:07.905Z,17.10
2022-08-31T20:24:43.605Z,17.10
2022-08-31T20:27:16.094Z,17.10
2022-08-31T20:29:44.593Z,17.00
2022-08-31T20:32:12.860Z,17.00
2022-08-31T20:34:41.099Z,16.90
2022-08-31T20:37:12.712Z,16.90
2022-08-31T20:39:42.104Z,16.80
2022-08-31T20:42:10.389Z,16.80
2022-08-31T20:44:41.924Z,16.80
2022-08-31T20:47:29.928Z,16.70
2022-08-31T20:50:01.210Z,16.70
2022-08-31T20:52:35.721Z,16.70
2022-08-31T20:55:07.350Z,16.70
2022-08-31T20:57:40.583Z,16.60
2022-08-31T21:00:11.990Z,16.60
2022-08-31T21:02:40.771Z,16.50
2022-08-31T21:05:37.997Z,16.50
2022-08-31T21:08:02.531Z,16.60
2022-08-31T21:10:37.620Z,16.50
2022-08-31T21:13:10.081Z,16.50
2022-08-31T21:15:44.015Z,16.40
2022-08-31T21:18:15.881Z,16.40
2022-08-31T21:20:45.054Z,16.30
2022-08-31T21:23:15.137Z,16.40
2022-08-31T21:25:45.924Z,16.30
2022-08-31T21:28:18.249Z,16.30
2022-08-31T21:30:50.167Z,16.20
2022-08-31T21:33:19.392Z,16.20
2022-08-31T21:35:47.833Z,16.10
2022-08-31T21:38:18.229Z,16.10
2022-08-31T21:40:51.192Z,16.10
2022-08-31T21:43:20.143Z,16.10
2022-08-31T21:45:55.014Z,16.00
2022-08-31T21:48:25.961Z,16.00
2022-08-31T21:50:55.483Z,16.00
2022-08-31T21:53:27.114Z,15.90
2022-08-31T21:55:55.513Z,15.90
2022-08-31T21:58:23.963Z,15.70
2022-08-31T22:00:52.548Z,15.70
2022-08-31T22:03:22.462Z,15.60
2022-08-31T22:05:50.901Z,15.60
2022-08-31T22:08:19.873Z,15.60
2022-08-31T22:10:50.133Z,15.60
2022-08-31T22:13:19.637Z,15.50
2022-08-31T22:15:48.281Z,15.50
2022-08-31T22:18:59.618Z,15.40
2022-08-31T22:21:05.771Z,15.50
2022-08-31T22:23:35.870Z,15.40
2022-08-31T22:26:05.549Z,15.40
2022-08-31T22:28:34.730Z,15.50
2022-08-31T22:31:05.044Z,15.50
2022-08-31T22:33:33.812Z,15.50
2022-08-31T22:36:02.311Z,15.50
2022-08-31T22:38:30.638Z,15.50
2022-08-31T22:40:59.089Z,15.40
2022-08-31T22:43:28.635Z,15.40
2022-08-31T22:45:56.957Z,15.30
2022-08-31T22:48:25.755Z,15.30
2022-08-31T22:50:54.155Z,15.20
2022-08-31T22:53:22.530Z,15.20
2022-08-31T22:55:50.965Z,15.20
2022-08-31T22:58:19.353Z,15.20
2022-08-31T23:00:49.184Z,15.20
2022-08-31T23:03:18.059Z,15.20
2022-08-31T23:05:46.326Z,15.20
2022-08-31T23:08:16.160Z,15.10
2022-08-31T23:10:46.339Z,15.00
2022-08-31T23:13:14.915Z,14.90
2022-08-31T23:15:43.882Z,14.90
2022-08-31T23:18:13.651Z,14.90
2022-08-31T23:20:42.064Z,14.90
2022-08-31T23:23:10.910Z,14.90
2022-08-31T23:25:40.960Z,14.90
2022-08-31T23:28:09.656Z,15.00
2022-08-31T23:30:38.214Z,14.90
2022-08-31T23:33:06.896Z,14.90
2022-08-31T23:35:37.364Z,14.90
2022-08-31T23:38:05.581Z,14.90
2022-08-31T23:40:34.023Z,14.90
2022-08-31T23:43:02.485Z,14.80
2022-08-31T23:45:31.980Z,14.80
2022-08-31T23:48:00.342Z,14.70
2022-08-31T23:50:28.973Z,14.70
2022-08-31T23:52:58.582Z,14.70
2022-08-31T23:55:28.947Z,14.70
2022-08-31T23:57:59.069Z,14.70
